Time;durP1;ratioP1;P1;durP2;ratioP2;P2;SDS_P1;SDS_P2;PMS_P1;PMS_P2;Temp;Humidity;BMP_temperature;BMP_pressure;BME280_temperature;BME280_humidity;BME280_pressure;Samples;Min_cycle;Max_cycle;Signal;HPM_P1;HPM_P2
2023/08/28 00:01:41;;;;;;;;;0.00;0.00;;;;;;;;5031986;28;8823;-80
2023/08/28 00:04:09;;;;;;;;;1.25;1.25;;;;;;;;5031575;28;8856;-79
2023/08/28 00:06:36;;;;;;;;;0.50;0.50;;;;;;;;5031683;28;9024;-79
2023/08/28 00:09:04;;;;;;;;;2.00;0.50;;;;;;;;5017474;28;8895;-79
2023/08/28 00:11:34;;;;;;;;;1.00;1.00;;;;;;;;5031440;28;8848;-78
2023/08/28 00:14:01;;;;;;;;;1.00;1.00;;;;;;;;5031257;28;8895;-79
2023/08/28 00:16:29;;;;;;;;;1.00;1.00;;;;;;;;5030794;28;8865;-79
2023/08/28 00:18:57;;;;;;;;;1.00;1.00;;;;;;;;5031480;28;8828;-79
2023/08/28 00:21:24;;;;;;;;;2.25;1.00;;;;;;;;5030878;28;8872;-79
2023/08/28 00:23:51;;;;;;;;;2.00;2.00;;;;;;;;5031161;28;8908;-80
2023/08/28 00:26:21;;;;;;;;;1.25;1.25;;;;;;;;5031324;28;8889;-78
2023/08/28 00:28:48;;;;;;;;;2.00;2.00;;;;;;;;5031554;28;8872;-79
2023/08/28 00:31:15;;;;;;;;;1.75;1.75;;;;;;;;5030177;28;8801;-78
2023/08/28 00:33:44;;;;;;;;;1.00;1.00;;;;;;;;5030821;28;8872;-79
2023/08/28 00:36:11;;;;;;;;;1.00;1.00;;;;;;;;5028971;28;8875;-78
2023/08/28 00:38:41;;;;;;;;;2.00;2.00;;;;;;;;5022135;28;8864;-79
2023/08/28 00:41:11;;;;;;;;;2.00;2.00;;;;;;;;5031224;28;8883;-79
2023/08/28 00:43:38;;;;;;;;;1.00;1.00;;;;;;;;5031499;28;9018;-79
2023/08/28 00:46:06;;;;;;;;;2.00;2.00;;;;;;;;5031134;28;8849;-80
2023/08/28 00:48:34;;;;;;;;;0.00;0.00;;;;;;;;5030985;28;8879;-79
2023/08/28 00:51:03;;;;;;;;;1.50;1.50;;;;;;;;5030658;28;8981;-78
2023/08/28 00:53:30;;;;;;;;;1.00;1.00;;;;;;;;5031269;28;8873;-78
2023/08/28 00:55:58;;;;;;;;;1.75;1.50;;;;;;;;5032084;28;8868;-78
2023/08/28 00:58:25;;;;;;;;;2.50;2.50;;;;;;;;5035133;28;8856;-79
2023/08/28 01:00:52;;;;;;;;;1.00;1.00;;;;;;;;5034686;28;8814;-77
2023/08/28 01:03:22;;;;;;;;;1.75;1.00;;;;;;;;5035966;28;8864;-79
2023/08/28 01:06:00;;;;;;;;;1.50;1.50;;;;;;;;5036331;28;8874;-79
2023/08/28 01:08:34;;;;;;;;;1.50;1.50;;;;;;;;5035653;28;8840;-79
2023/08/28 01:11:10;;;;;;;;;0.00;0.00;;;;;;;;5030352;28;9709;-79
2023/08/28 01:13:42;;;;;;;;;0.00;0.00;;;;;;;;5029633;28;8887;-79
2023/08/28 01:16:20;;;;;;;;;1.00;1.00;;;;;;;;5030288;28;8868;-79
2023/08/28 01:18:48;;;;;;;;;0.00;0.00;;;;;;;;5029767;28;8868;-79
2023/08/28 01:21:16;;;;;;;;;1.25;1.25;;;;;;;;5029725;28;8867;-78
2023/08/28 01:23:50;;;;;;;;;1.25;1.00;;;;;;;;5029828;28;8868;-80
2023/08/28 01:26:19;;;;;;;;;2.75;1.25;;;;;;;;5029641;28;8947;-79
2023/08/28 01:28:46;;;;;;;;;1.75;1.75;;;;;;;;5029501;28;8894;-79
2023/08/28 01:31:14;;;;;;;;;1.00;1.00;;;;;;;;5029125;28;8820;-79
2023/08/28 01:33:41;;;;;;;;;2.00;1.00;;;;;;;;5030710;28;8868;-79
2023/08/28 01:36:16;;;;;;;;;1.25;1.25;;;;;;;;5030743;28;8876;-79
2023/08/28 01:38:49;;;;;;;;;0.00;0.00;;;;;;;;5032440;28;8863;-79
2023/08/28 01:41:20;;;;;;;;;0.75;0.75;;;;;;;;5030184;28;8909;-79
2023/08/28 01:43:49;;;;;;;;;1.00;1.00;;;;;;;;5030221;28;8950;-78
2023/08/28 01:46:20;;;;;;;;;1.50;1.50;;;;;;;;5029434;28;8866;-79
2023/08/28 01:48:52;;;;;;;;;0.75;0.75;;;;;;;;5029482;28;8983;-79
2023/08/28 01:51:19;;;;;;;;;1.00;1.00;;;;;;;;5030030;28;8836;-78
2023/08/28 01:53:47;;;;;;;;;1.00;1.00;;;;;;;;5029301;28;9787;-78
2023/08/28 01:56:17;;;;;;;;;1.75;1.75;;;;;;;;5029267;28;8895;-79
2023/08/28 01:58:48;;;;;;;;;1.00;1.00;;;;;;;;5029072;28;8839;-79
2023/08/28 02:01:15;;;;;;;;;3.75;2.00;;;;;;;;5029008;28;8938;-79
2023/08/28 02:03:43;;;;;;;;;2.75;2.75;;;;;;;;5028786;28;9591;-79
2023/08/28 02:06:10;;;;;;;;;1.50;1.50;;;;;;;;5029238;28;8994;-79
2023/08/28 02:08:41;;;;;;;;;1.00;1.00;;;;;;;;5028808;28;8852;-79
2023/08/28 02:11:11;;;;;;;;;1.75;1.75;;;;;;;;5028989;28;8870;-79
2023/08/28 02:13:40;;;;;;;;;2.75;1.00;;;;;;;;5029009;28;8868;-79
2023/08/28 02:16:10;;;;;;;;;1.75;1.75;;;;;;;;5029113;28;8852;-78
2023/08/28 02:18:37;;;;;;;;;3.25;2.00;;;;;;;;5028818;28;8850;-79
2023/08/28 02:21:04;;;;;;;;;2.00;1.00;;;;;;;;5029307;28;8856;-78
2023/08/28 02:23:32;;;;;;;;;2.50;1.00;;;;;;;;5029033;28;8878;-79
2023/08/28 02:25:59;;;;;;;;;1.00;1.00;;;;;;;;5029156;28;8880;-79
2023/08/28 02:28:26;;;;;;;;;0.75;0.75;;;;;;;;5028624;28;8947;-78
2023/08/28 02:30:53;;;;;;;;;2.00;1.50;;;;;;;;5028454;28;8797;-77
2023/08/28 02:33:24;;;;;;;;;2.50;2.00;;;;;;;;5016580;28;8840;-77
2023/08/28 02:35:53;;;;;;;;;1.75;1.75;;;;;;;;5027915;28;8860;-77
2023/08/28 02:38:20;;;;;;;;;2.00;2.00;;;;;;;;5031683;28;8852;-77
2023/08/28 02:40:47;;;;;;;;;2.00;2.00;;;;;;;;5033002;28;8844;-78
2023/08/28 02:43:15;;;;;;;;;2.00;2.00;;;;;;;;5026041;28;8962;-77
2023/08/28 02:45:42;;;;;;;;;2.00;2.00;;;;;;;;5033295;28;8890;-77
2023/08/28 02:48:10;;;;;;;;;2.25;1.00;;;;;;;;5034482;28;8880;-78
2023/08/28 02:50:39;;;;;;;;;1.00;1.00;;;;;;;;5032677;28;8876;-78
2023/08/28 02:53:06;;;;;;;;;2.25;2.00;;;;;;;;5028254;28;8886;-77
2023/08/28 02:55:40;;;;;;;;;2.50;2.00;;;;;;;;5027769;28;8856;-78
2023/08/28 02:58:09;;;;;;;;;1.00;1.00;;;;;;;;5028201;28;8939;-78
2023/08/28 03:00:37;;;;;;;;;2.25;1.50;;;;;;;;5027474;28;8878;-79
2023/08/28 03:03:05;;;;;;;;;4.00;2.00;;;;;;;;5028030;28;8876;-78
2023/08/28 03:05:35;;;;;;;;;2.00;2.00;;;;;;;;5027455;28;8878;-78
2023/08/28 03:08:04;;;;;;;;;3.00;1.50;;;;;;;;5027891;28;8852;-79
2023/08/28 03:10:34;;;;;;;;;2.00;2.00;;;;;;;;5027973;28;8848;-76
2023/08/28 03:13:02;;;;;;;;;1.50;1.00;;;;;;;;5027251;28;9705;-78
2023/08/28 03:15:32;;;;;;;;;2.00;2.00;;;;;;;;5028530;28;8861;-79
2023/08/28 03:17:59;;;;;;;;;1.00;1.00;;;;;;;;5029746;28;8864;-78
2023/08/28 03:20:26;;;;;;;;;2.25;2.25;;;;;;;;5029389;28;8860;-80
2023/08/28 03:22:56;;;;;;;;;1.00;1.00;;;;;;;;5032261;28;8973;-80
2023/08/28 03:25:25;;;;;;;;;2.00;2.00;;;;;;;;5032656;28;8860;-80
2023/08/28 03:27:52;;;;;;;;;1.50;1.50;;;;;;;;5032454;28;8867;-78
2023/08/28 03:30:19;;;;;;;;;2.50;2.50;;;;;;;;5030011;28;8874;-78
2023/08/28 03:32:48;;;;;;;;;3.50;2.00;;;;;;;;5032083;28;8982;-78
2023/08/28 03:35:16;;;;;;;;;2.75;1.50;;;;;;;;5030310;28;8871;-79
2023/08/28 03:37:44;;;;;;;;;2.00;2.00;;;;;;;;5027984;28;8856;-78
2023/08/28 03:40:12;;;;;;;;;1.50;1.50;;;;;;;;5031200;28;9006;-78
2023/08/28 03:42:40;;;;;;;;;2.00;2.00;;;;;;;;5032221;28;8864;-78
2023/08/28 03:45:12;;;;;;;;;1.25;1.25;;;;;;;;5031148;28;8848;-78
2023/08/28 03:47:39;;;;;;;;;2.00;2.00;;;;;;;;5030695;28;8871;-78
2023/08/28 03:50:09;;;;;;;;;1.00;1.00;;;;;;;;5030215;28;8840;-77
2023/08/28 03:52:37;;;;;;;;;1.00;1.00;;;;;;;;5031552;28;8857;-78
2023/08/28 03:55:04;;;;;;;;;2.00;2.00;;;;;;;;5030529;28;8848;-77
2023/08/28 03:57:34;;;;;;;;;1.25;1.25;;;;;;;;5031054;28;8872;-78
2023/08/28 04:00:10;;;;;;;;;0.00;0.00;;;;;;;;5030830;28;8935;-79
2023/08/28 04:02:38;;;;;;;;;3.00;1.00;;;;;;;;5031883;28;8815;-79
2023/08/28 04:05:06;;;;;;;;;3.00;3.00;;;;;;;;5019526;28;8862;-79
2023/08/28 04:07:34;;;;;;;;;2.00;2.00;;;;;;;;5034574;28;8863;-79
2023/08/28 04:10:02;;;;;;;;;2.00;2.00;;;;;;;;5036295;28;8896;-80
2023/08/28 04:12:29;;;;;;;;;2.00;2.00;;;;;;;;5030367;28;9635;-79
2023/08/28 04:14:58;;;;;;;;;2.00;2.00;;;;;;;;5030799;28;8857;-80
2023/08/28 04:17:26;;;;;;;;;4.00;2.25;;;;;;;;5032557;28;8883;-81
2023/08/28 04:19:55;;;;;;;;;1.00;1.00;;;;;;;;5033491;28;8951;-77
2023/08/28 04:22:25;;;;;;;;;1.50;1.00;;;;;;;;5034931;28;9003;-76
2023/08/28 04:24:54;;;;;;;;;2.00;2.00;;;;;;;;5034576;28;8852;-79
2023/08/28 04:27:22;;;;;;;;;2.25;1.75;;;;;;;;5035321;28;9011;-80
2023/08/28 04:29:49;;;;;;;;;2.25;2.25;;;;;;;;5035698;28;8852;-78
2023/08/28 04:32:16;;;;;;;;;1.00;1.00;;;;;;;;5031166;28;9478;-82
2023/08/28 04:34:45;;;;;;;;;2.00;2.00;;;;;;;;5029098;28;8852;-80
2023/08/28 04:37:12;;;;;;;;;3.25;2.00;;;;;;;;5029879;28;8984;-79
2023/08/28 04:39:41;;;;;;;;;1.25;1.25;;;;;;;;5030213;28;8859;-79
2023/08/28 04:42:08;;;;;;;;;2.00;2.00;;;;;;;;5029766;28;8854;-81
2023/08/28 04:44:35;;;;;;;;;1.00;1.00;;;;;;;;5030218;28;8848;-80
2023/08/28 04:47:05;;;;;;;;;2.25;2.25;;;;;;;;5030119;28;8886;-80
2023/08/28 04:49:33;;;;;;;;;2.00;1.25;;;;;;;;5030318;28;8883;-85
2023/08/28 04:52:03;;;;;;;;;9.25;7.50;;;;;;;;5030002;28;8882;-82
2023/08/28 04:54:30;;;;;;;;;2.50;2.50;;;;;;;;5029823;28;9743;-81
2023/08/28 04:57:00;;;;;;;;;1.75;1.75;;;;;;;;5018514;28;8860;-82
2023/08/28 04:59:27;;;;;;;;;2.00;2.00;;;;;;;;5030196;28;8868;-72
2023/08/28 05:01:54;;;;;;;;;2.00;2.00;;;;;;;;5029314;28;8824;-71
2023/08/28 05:04:22;;;;;;;;;2.75;2.75;;;;;;;;5029048;28;8907;-72
2023/08/28 05:06:49;;;;;;;;;4.25;1.00;;;;;;;;5029468;28;8872;-73
2023/08/28 05:09:18;;;;;;;;;2.00;2.00;;;;;;;;5028848;28;8882;-71
2023/08/28 05:11:45;;;;;;;;;2.00;2.00;;;;;;;;5029349;28;8882;-76
2023/08/28 05:14:12;;;;;;;;;3.00;3.00;;;;;;;;5028819;28;8894;-73
2023/08/28 05:16:39;;;;;;;;;4.00;2.00;;;;;;;;5029656;28;8883;-73
2023/08/28 05:19:06;;;;;;;;;2.00;2.00;;;;;;;;5028460;28;8836;-73
2023/08/28 05:21:34;;;;;;;;;2.25;2.25;;;;;;;;5029196;28;8844;-73
2023/08/28 05:24:01;;;;;;;;;3.50;3.50;;;;;;;;5028836;28;8848;-73
2023/08/28 05:26:30;;;;;;;;;2.75;2.00;;;;;;;;5029180;28;8860;-72
2023/08/28 05:28:57;;;;;;;;;1.50;1.00;;;;;;;;5028862;28;8848;-72
2023/08/28 05:31:24;;;;;;;;;2.00;2.00;;;;;;;;5029006;28;8876;-73
2023/08/28 05:33:51;;;;;;;;;2.25;2.25;;;;;;;;5028505;28;8950;-73
2023/08/28 05:36:19;;;;;;;;;2.50;2.00;;;;;;;;5026025;28;8856;-74
2023/08/28 05:38:46;;;;;;;;;3.00;2.75;;;;;;;;5027427;28;8878;-75
2023/08/28 05:41:13;;;;;;;;;1.25;1.25;;;;;;;;5028623;28;8888;-73
2023/08/28 05:43:41;;;;;;;;;2.00;2.00;;;;;;;;5028493;28;8866;-75
2023/08/28 05:46:08;;;;;;;;;2.75;2.75;;;;;;;;5027998;28;8868;-73
2023/08/28 05:48:36;;;;;;;;;1.50;1.50;;;;;;;;5028605;28;8878;-73
2023/08/28 05:51:03;;;;;;;;;2.25;2.00;;;;;;;;5028451;28;8883;-73
2023/08/28 05:53:30;;;;;;;;;3.75;3.00;;;;;;;;5028329;28;8868;-73
2023/08/28 05:55:57;;;;;;;;;2.75;2.75;;;;;;;;5028798;28;8895;-74
2023/08/28 05:58:25;;;;;;;;;4.25;2.75;;;;;;;;5029178;28;8852;-73
2023/08/28 06:00:53;;;;;;;;;2.25;2.25;;;;;;;;5031148;28;8812;-73
2023/08/28 06:03:21;;;;;;;;;2.75;2.75;;;;;;;;5030684;28;8880;-75
2023/08/28 06:05:48;;;;;;;;;4.00;2.00;;;;;;;;5032157;28;8858;-73
2023/08/28 06:08:17;;;;;;;;;2.00;2.00;;;;;;;;5031672;28;8856;-75
2023/08/28 06:10:44;;;;;;;;;2.25;1.75;;;;;;;;5030787;28;8880;-76
2023/08/28 06:13:11;;;;;;;;;4.75;3.00;;;;;;;;5028009;28;9674;-73
2023/08/28 06:15:39;;;;;;;;;4.25;2.25;;;;;;;;5027644;28;8983;-72
2023/08/28 06:18:07;;;;;;;;;1.25;1.25;;;;;;;;5028116;28;9008;-73
2023/08/28 06:20:37;;;;;;;;;5.00;3.00;;;;;;;;5028014;28;8863;-74
2023/08/28 06:23:04;;;;;;;;;4.50;2.50;;;;;;;;5028261;28;8844;-74
2023/08/28 06:25:32;;;;;;;;;3.50;3.50;;;;;;;;5027746;28;8933;-73
2023/08/28 06:27:59;;;;;;;;;4.50;3.00;;;;;;;;5028096;28;8867;-73
2023/08/28 06:30:27;;;;;;;;;2.00;2.00;;;;;;;;5027220;28;8834;-73
2023/08/28 06:32:54;;;;;;;;;2.50;2.50;;;;;;;;5028254;28;8864;-72
2023/08/28 06:35:22;;;;;;;;;5.50;2.75;;;;;;;;5027427;28;8849;-73
2023/08/28 06:37:50;;;;;;;;;2.50;2.50;;;;;;;;5024387;28;8876;-72
2023/08/28 06:40:17;;;;;;;;;6.50;2.00;;;;;;;;5027509;28;8860;-73
2023/08/28 06:42:45;;;;;;;;;2.00;2.00;;;;;;;;5027840;28;8856;-73
2023/08/28 06:45:12;;;;;;;;;2.00;2.00;;;;;;;;5026858;28;9610;-73
2023/08/28 06:47:39;;;;;;;;;2.75;2.75;;;;;;;;5027800;28;8982;-73
2023/08/28 06:50:07;;;;;;;;;2.25;2.25;;;;;;;;5027431;28;8874;-73
2023/08/28 06:52:38;;;;;;;;;2.25;2.25;;;;;;;;5027802;28;8975;-75
2023/08/28 06:55:06;;;;;;;;;3.25;3.25;;;;;;;;5027171;28;8848;-73
2023/08/28 06:57:33;;;;;;;;;3.50;3.50;;;;;;;;5026883;28;8860;-73
2023/08/28 07:00:01;;;;;;;;;3.00;3.00;;;;;;;;5027052;28;8961;-73
2023/08/28 07:02:31;;;;;;;;;4.25;2.50;;;;;;;;5026783;28;8832;-73
2023/08/28 07:04:58;;;;;;;;;3.00;3.00;;;;;;;;5026994;28;8860;-73
2023/08/28 07:07:26;;;;;;;;;2.75;2.75;;;;;;;;5027717;28;8845;-76
2023/08/28 07:09:56;;;;;;;;;2.75;2.75;;;;;;;;5027894;28;8879;-74
2023/08/28 07:12:23;;;;;;;;;3.00;3.00;;;;;;;;5027290;28;8889;-73
2023/08/28 07:15:23;;;;;;;;;2.00;2.00;;;;;;;;5027457;28;8872;-73
2023/08/28 07:17:50;;;;;;;;;1.50;1.50;;;;;;;;5027078;28;8885;-73
2023/08/28 07:20:17;;;;;;;;;3.50;3.50;;;;;;;;5028323;28;8992;-73
2023/08/28 07:22:44;;;;;;;;;3.00;3.00;;;;;;;;5025953;28;8887;-72
2023/08/28 07:25:15;;;;;;;;;2.50;2.00;;;;;;;;5027181;28;8852;-72
2023/08/28 07:27:42;;;;;;;;;5.00;3.50;;;;;;;;5027159;28;8853;-73
2023/08/28 07:30:13;;;;;;;;;2.75;2.75;;;;;;;;5026070;28;8856;-73
2023/08/28 07:32:40;;;;;;;;;4.00;4.00;;;;;;;;5027705;28;8884;-73
2023/08/28 07:35:08;;;;;;;;;3.00;3.00;;;;;;;;5027031;28;8868;-73
2023/08/28 07:37:36;;;;;;;;;3.00;3.00;;;;;;;;5021623;28;8862;-73
2023/08/28 07:40:08;;;;;;;;;4.00;4.00;;;;;;;;5029958;28;8888;-73
2023/08/28 07:42:37;;;;;;;;;3.00;2.00;;;;;;;;5029775;28;8962;-73
2023/08/28 07:45:05;;;;;;;;;3.75;3.25;;;;;;;;5031995;28;8880;-73
2023/08/28 07:47:32;;;;;;;;;2.25;2.25;;;;;;;;5029792;28;8883;-73
2023/08/28 07:49:59;;;;;;;;;2.75;2.75;;;;;;;;5028635;28;8856;-84
2023/08/28 07:52:26;;;;;;;;;3.50;2.75;;;;;;;;5028270;28;8860;-73
2023/08/28 07:54:53;;;;;;;;;4.75;3.00;;;;;;;;5027550;28;8871;-74
2023/08/28 07:57:23;;;;;;;;;3.50;1.75;;;;;;;;5027988;28;8883;-73
2023/08/28 07:59:51;;;;;;;;;2.75;1.25;;;;;;;;5028174;28;8999;-73
2023/08/28 08:02:19;;;;;;;;;2.25;2.25;;;;;;;;5026525;28;8828;-74
2023/08/28 08:04:46;;;;;;;;;1.75;1.75;;;;;;;;5026714;28;8860;-75
2023/08/28 08:07:13;;;;;;;;;3.25;3.25;;;;;;;;5026411;28;8887;-73
2023/08/28 08:09:40;;;;;;;;;2.50;2.00;;;;;;;;5029567;28;8947;-84
2023/08/28 08:12:11;;;;;;;;;2.00;2.00;;;;;;;;5029930;28;8999;-73
2023/08/28 08:14:38;;;;;;;;;2.00;2.00;;;;;;;;5029990;28;9760;-73
2023/08/28 08:17:07;;;;;;;;;2.50;2.50;;;;;;;;5030731;28;8870;-73
2023/08/28 08:19:34;;;;;;;;;2.00;2.00;;;;;;;;5030443;28;8856;-73
2023/08/28 08:22:02;;;;;;;;;2.60;1.60;;;;;;;;5030433;28;9057;-73
2023/08/28 08:24:29;;;;;;;;;1.40;1.40;;;;;;;;5030740;28;8869;-81
2023/08/28 08:26:56;;;;;;;;;1.00;1.00;;;;;;;;5030184;28;8872;-75
2023/08/28 08:29:24;;;;;;;;;0.80;0.80;;;;;;;;5030143;28;8906;-72
2023/08/28 08:31:52;;;;;;;;;0.20;0.20;;;;;;;;5030470;28;8832;-75
2023/08/28 08:34:20;;;;;;;;;3.80;2.00;;;;;;;;5029875;28;8856;-72
2023/08/28 08:36:47;;;;;;;;;1.80;1.80;;;;;;;;5029701;28;8886;-73
2023/08/28 08:39:14;;;;;;;;;1.00;1.00;;;;;;;;5029622;28;9249;-75
2023/08/28 08:41:43;;;;;;;;;1.40;1.40;;;;;;;;5029353;28;8840;-73
2023/08/28 08:44:10;;;;;;;;;0.80;0.80;;;;;;;;5029215;28;8862;-79
2023/08/28 08:46:37;;;;;;;;;2.40;2.40;;;;;;;;5029608;28;8875;-73
2023/08/28 08:49:07;;;;;;;;;2.00;0.20;;;;;;;;5029344;28;9002;-74
2023/08/28 08:51:37;;;;;;;;;1.00;1.00;;;;;;;;5029581;28;8863;-74
2023/08/28 08:54:10;;;;;;;;;2.60;0.80;;;;;;;;5029147;28;8860;-72
2023/08/28 08:56:39;;;;;;;;;1.00;1.00;;;;;;;;5029402;28;8850;-73
2023/08/28 08:59:06;;;;;;;;;2.00;2.00;;;;;;;;5028978;28;8895;-73
2023/08/28 09:01:34;;;;;;;;;2.80;1.00;;;;;;;;5029063;28;8812;-73
2023/08/28 09:04:03;;;;;;;;;3.60;2.80;;;;;;;;5029948;28;9658;-73
2023/08/28 09:06:31;;;;;;;;;3.60;1.80;;;;;;;;5029209;28;8864;-72
2023/08/28 09:09:00;;;;;;;;;2.80;2.80;;;;;;;;5029899;28;8856;-72
2023/08/28 09:11:27;;;;;;;;;1.60;1.60;;;;;;;;5028006;28;8868;-73
2023/08/28 09:13:54;;;;;;;;;0.80;0.80;;;;;;;;5030018;28;8875;-78
2023/08/28 09:16:21;;;;;;;;;1.80;1.80;;;;;;;;5029759;28;8856;-76
2023/08/28 09:18:50;;;;;;;;;1.80;1.80;;;;;;;;5031796;28;8862;-72
2023/08/28 09:21:17;;;;;;;;;3.00;2.00;;;;;;;;5031443;28;8872;-73
2023/08/28 09:23:47;;;;;;;;;2.20;2.20;;;;;;;;5032766;28;8872;-73
2023/08/28 09:26:18;;;;;;;;;1.80;1.80;;;;;;;;5014828;28;8877;-72
2023/08/28 09:28:59;;;;;;;;;1.00;1.00;;;;;;;;5029367;28;8832;-72
2023/08/28 09:31:28;;;;;;;;;1.40;1.40;;;;;;;;5028371;28;9690;-72
2023/08/28 09:33:56;;;;;;;;;3.00;1.60;;;;;;;;5027174;28;9257;-73
2023/08/28 09:36:24;;;;;;;;;1.60;1.20;;;;;;;;5028995;28;9603;-74
2023/08/28 09:38:52;;;;;;;;;2.00;1.60;;;;;;;;5028967;28;8932;-73
2023/08/28 09:41:20;;;;;;;;;0.20;0.20;;;;;;;;5028458;28;8882;-73
2023/08/28 09:43:50;;;;;;;;;1.60;1.60;;;;;;;;5028794;28;8856;-78
2023/08/28 09:46:18;;;;;;;;;0.80;0.80;;;;;;;;5028703;28;8908;-73
2023/08/28 09:48:45;;;;;;;;;2.00;2.00;;;;;;;;5028947;28;8860;-79
2023/08/28 09:51:13;;;;;;;;;1.00;1.00;;;;;;;;5028240;28;8873;-75
2023/08/28 09:53:40;;;;;;;;;0.80;0.80;;;;;;;;5028713;28;9002;-73
2023/08/28 09:56:10;;;;;;;;;0.60;0.60;;;;;;;;5028462;28;8876;-73
2023/08/28 09:58:38;;;;;;;;;1.20;1.20;;;;;;;;5029043;28;8874;-75
2023/08/28 10:01:07;;;;;;;;;1.00;1.00;;;;;;;;5028222;28;9529;-82
2023/08/28 10:03:34;;;;;;;;;0.00;0.00;;;;;;;;5028825;28;8983;-73
2023/08/28 10:06:02;;;;;;;;;0.80;0.80;;;;;;;;5028173;28;8882;-74
2023/08/28 10:08:31;;;;;;;;;0.80;0.80;;;;;;;;5028851;28;8963;-75
2023/08/28 10:10:58;;;;;;;;;0.00;0.00;;;;;;;;5028422;28;8883;-76
2023/08/28 10:13:26;;;;;;;;;0.00;0.00;;;;;;;;5028515;28;8906;-74
2023/08/28 10:15:59;;;;;;;;;1.20;1.20;;;;;;;;5028215;28;9086;-82
2023/08/28 10:18:30;;;;;;;;;1.20;1.00;;;;;;;;5028424;28;8997;-75
2023/08/28 10:20:58;;;;;;;;;0.60;0.60;;;;;;;;5028199;28;8852;-73
2023/08/28 10:23:28;;;;;;;;;1.00;1.00;;;;;;;;5027725;28;8878;-73
2023/08/28 10:25:56;;;;;;;;;0.80;0.80;;;;;;;;5027921;28;8862;-73
2023/08/28 10:28:25;;;;;;;;;0.80;0.80;;;;;;;;5027737;28;9454;-75
2023/08/28 10:30:54;;;;;;;;;0.00;0.00;;;;;;;;5026477;28;8831;-73
2023/08/28 10:33:21;;;;;;;;;0.60;0.60;;;;;;;;5027694;28;8860;-74
2023/08/28 10:35:52;;;;;;;;;0.80;0.80;;;;;;;;5015752;28;8856;-74
2023/08/28 10:38:20;;;;;;;;;0.20;0.20;;;;;;;;5027337;28;8880;-75
2023/08/28 10:40:48;;;;;;;;;0.20;0.20;;;;;;;;5028180;28;8864;-75
2023/08/28 10:43:20;;;;;;;;;2.20;1.00;;;;;;;;5026676;28;8856;-75
2023/08/28 10:45:48;;;;;;;;;1.00;1.00;;;;;;;;5028077;28;8897;-76
2023/08/28 10:48:20;;;;;;;;;0.80;0.80;;;;;;;;5027034;28;8837;-74
2023/08/28 10:50:47;;;;;;;;;1.80;1.80;;;;;;;;5028055;28;8856;-75
2023/08/28 10:53:16;;;;;;;;;1.00;1.00;;;;;;;;5026918;28;8887;-75
2023/08/28 10:55:53;;;;;;;;;0.60;0.60;;;;;;;;5029608;28;8882;-73
2023/08/28 10:58:20;;;;;;;;;1.80;1.80;;;;;;;;5031304;28;8880;-76
2023/08/28 11:00:47;;;;;;;;;0.80;0.80;;;;;;;;5030057;28;8861;-72
2023/08/28 11:03:17;;;;;;;;;0.80;0.80;;;;;;;;5028971;28;8868;-72
2023/08/28 11:05:46;;;;;;;;;0.40;0.20;;;;;;;;5030989;28;8846;-74
2023/08/28 11:08:14;;;;;;;;;3.80;0.80;;;;;;;;5029711;28;8928;-73
2023/08/28 11:10:45;;;;;;;;;0.20;0.20;;;;;;;;5027425;28;8988;-73
2023/08/28 11:13:21;;;;;;;;;0.20;0.20;;;;;;;;5016263;28;8848;-71
2023/08/28 11:15:49;;;;;;;;;1.00;1.00;;;;;;;;5027144;28;8856;-77
2023/08/28 11:18:28;;;;;;;;;0.80;0.80;;;;;;;;5026917;28;8845;-72
2023/08/28 11:20:58;;;;;;;;;1.00;1.00;;;;;;;;5026957;28;8852;-72
2023/08/28 11:23:33;;;;;;;;;0.80;0.80;;;;;;;;5027206;28;8848;-71
2023/08/28 11:26:04;;;;;;;;;0.40;0.40;;;;;;;;5027119;28;8898;-72
2023/08/28 11:28:43;;;;;;;;;0.20;0.20;;;;;;;;5027418;28;8979;-72
2023/08/28 11:31:11;;;;;;;;;0.00;0.00;;;;;;;;5026495;28;8842;-72
2023/08/28 11:33:39;;;;;;;;;0.20;0.20;;;;;;;;5026925;28;8863;-71
2023/08/28 11:36:09;;;;;;;;;0.40;0.40;;;;;;;;5026442;28;8867;-72
2023/08/28 11:38:37;;;;;;;;;0.00;0.00;;;;;;;;5025206;28;8856;-71
2023/08/28 11:41:07;;;;;;;;;0.20;0.20;;;;;;;;5027500;28;8982;-71
2023/08/28 11:43:36;;;;;;;;;0.20;0.20;;;;;;;;5027411;28;8856;-73
2023/08/28 11:46:04;;;;;;;;;0.00;0.00;;;;;;;;5030987;28;8880;-79
2023/08/28 11:48:37;;;;;;;;;0.00;0.00;;;;;;;;5031173;28;8860;-72
2023/08/28 11:51:06;;;;;;;;;1.20;0.00;;;;;;;;5030249;28;8864;-72
2023/08/28 11:53:36;;;;;;;;;0.40;0.40;;;;;;;;5031289;28;8890;-72
2023/08/28 11:56:05;;;;;;;;;0.20;0.20;;;;;;;;5031275;28;8860;-74
2023/08/28 11:58:36;;;;;;;;;0.80;0.80;;;;;;;;5030653;28;8949;-72
2023/08/28 12:01:07;;;;;;;;;0.00;0.00;;;;;;;;5030269;28;8830;-72
2023/08/28 12:03:37;;;;;;;;;0.80;0.80;;;;;;;;5030573;28;8875;-72
2023/08/28 12:06:06;;;;;;;;;0.20;0.20;;;;;;;;5030432;28;8860;-71
2023/08/28 12:08:35;;;;;;;;;1.00;1.00;;;;;;;;5031105;28;8855;-73
2023/08/28 12:11:05;;;;;;;;;1.20;1.20;;;;;;;;5031121;28;8871;-73
2023/08/28 12:13:33;;;;;;;;;1.00;1.00;;;;;;;;5031317;28;8872;-73
2023/08/28 12:16:11;;;;;;;;;1.00;1.00;;;;;;;;5030471;28;9606;-74
2023/08/28 12:18:49;;;;;;;;;1.80;1.80;;;;;;;;5030900;28;8929;-72
2023/08/28 12:21:16;;;;;;;;;2.00;0.80;;;;;;;;5018692;28;8852;-72
2023/08/28 12:23:49;;;;;;;;;2.60;1.80;;;;;;;;5030173;28;8872;-72
2023/08/28 12:26:20;;;;;;;;;1.40;1.40;;;;;;;;5030564;28;8833;-72
2023/08/28 12:28:48;;;;;;;;;2.40;2.40;;;;;;;;5029988;28;8848;-74
2023/08/28 12:31:15;;;;;;;;;0.20;0.20;;;;;;;;5030122;28;8841;-74
2023/08/28 12:33:44;;;;;;;;;1.00;1.00;;;;;;;;5031952;28;8840;-74
2023/08/28 12:36:12;;;;;;;;;1.80;1.80;;;;;;;;5033132;28;8899;-72
2023/08/28 12:38:46;;;;;;;;;1.80;1.80;;;;;;;;5032789;28;8872;-71
2023/08/28 12:41:15;;;;;;;;;0.80;0.80;;;;;;;;5033071;28;8864;-74
2023/08/28 12:43:45;;;;;;;;;1.80;1.80;;;;;;;;5032675;28;8986;-78
2023/08/28 12:46:12;;;;;;;;;2.20;1.20;;;;;;;;5032761;28;8864;-71
2023/08/28 12:48:39;;;;;;;;;0.00;0.00;;;;;;;;5029790;28;9643;-72
2023/08/28 12:51:07;;;;;;;;;1.40;1.20;;;;;;;;5029652;28;9642;-70
2023/08/28 12:53:38;;;;;;;;;1.80;1.80;;;;;;;;5029990;28;8955;-73
2023/08/28 12:56:07;;;;;;;;;1.00;1.00;;;;;;;;5029196;28;8953;-70
2023/08/28 12:58:35;;;;;;;;;0.80;0.80;;;;;;;;5029754;28;8979;-72
2023/08/28 13:01:04;;;;;;;;;0.20;0.20;;;;;;;;5029922;28;8784;-74
2023/08/28 13:03:31;;;;;;;;;2.20;1.80;;;;;;;;5029921;28;8880;-70
2023/08/28 13:05:59;;;;;;;;;2.00;2.00;;;;;;;;5029095;28;8880;-70
2023/08/28 13:08:26;;;;;;;;;1.20;1.20;;;;;;;;5029634;28;8852;-70
2023/08/28 13:10:53;;;;;;;;;1.00;1.00;;;;;;;;5029273;28;8868;-70
2023/08/28 13:13:23;;;;;;;;;1.20;1.20;;;;;;;;5029147;28;8866;-72
2023/08/28 13:15:52;;;;;;;;;1.00;1.00;;;;;;;;5029051;28;8828;-70
2023/08/28 13:18:20;;;;;;;;;1.20;1.20;;;;;;;;5029466;28;8856;-71
2023/08/28 13:20:48;;;;;;;;;0.20;0.20;;;;;;;;5029100;28;8852;-71
2023/08/28 13:23:15;;;;;;;;;0.00;0.00;;;;;;;;5028716;28;8878;-71
2023/08/28 13:25:42;;;;;;;;;0.00;0.00;;;;;;;;5029821;28;8889;-71
2023/08/28 13:28:10;;;;;;;;;0.20;0.20;;;;;;;;5029137;28;8868;-73
2023/08/28 13:30:37;;;;;;;;;0.00;0.00;;;;;;;;5028505;28;8815;-70
2023/08/28 13:33:06;;;;;;;;;0.00;0.00;;;;;;;;5028950;28;9015;-70
2023/08/28 13:35:35;;;;;;;;;0.00;0.00;;;;;;;;5028880;28;8972;-71
2023/08/28 13:38:05;;;;;;;;;0.00;0.00;;;;;;;;5029719;28;8909;-73
2023/08/28 13:40:33;;;;;;;;;0.00;0.00;;;;;;;;5023373;28;8897;-71
2023/08/28 13:43:02;;;;;;;;;0.00;0.00;;;;;;;;5022551;28;8868;-71
2023/08/28 13:45:29;;;;;;;;;0.00;0.00;;;;;;;;5028486;28;9006;-70
2023/08/28 13:47:58;;;;;;;;;0.00;0.00;;;;;;;;5028498;28;9023;-71
2023/08/28 13:50:26;;;;;;;;;0.00;0.00;;;;;;;;5028830;28;8892;-71
2023/08/28 13:52:55;;;;;;;;;0.00;0.00;;;;;;;;5028689;28;9423;-71
2023/08/28 13:55:22;;;;;;;;;0.80;0.00;;;;;;;;5028543;28;8875;-71
2023/08/28 13:57:50;;;;;;;;;0.00;0.00;;;;;;;;5028187;28;8865;-75
2023/08/28 14:00:17;;;;;;;;;0.00;0.00;;;;;;;;5028249;28;8878;-70
2023/08/28 14:02:45;;;;;;;;;0.00;0.00;;;;;;;;5028461;28;8837;-71
2023/08/28 14:05:13;;;;;;;;;0.00;0.00;;;;;;;;5028679;28;9012;-73
2023/08/28 14:07:42;;;;;;;;;1.00;1.00;;;;;;;;5028367;28;8852;-71
2023/08/28 14:10:10;;;;;;;;;0.00;0.00;;;;;;;;5028665;28;8864;-70
2023/08/28 14:12:38;;;;;;;;;0.00;0.00;;;;;;;;5029747;28;8856;-70
2023/08/28 14:15:07;;;;;;;;;1.00;1.00;;;;;;;;5031537;28;8838;-76
2023/08/28 14:17:34;;;;;;;;;0.00;0.00;;;;;;;;5031299;28;8848;-69
2023/08/28 14:20:03;;;;;;;;;0.00;0.00;;;;;;;;5033443;28;8983;-70
2023/08/28 14:22:30;;;;;;;;;0.40;0.40;;;;;;;;5032478;28;8871;-71
2023/08/28 14:24:59;;;;;;;;;0.20;0.20;;;;;;;;5031327;28;8954;-73
2023/08/28 14:27:26;;;;;;;;;0.00;0.00;;;;;;;;5028088;28;8902;-72
2023/08/28 14:29:53;;;;;;;;;1.00;0.00;;;;;;;;5027771;28;8880;-71
2023/08/28 14:32:20;;;;;;;;;0.00;0.00;;;;;;;;5026993;28;8822;-71
2023/08/28 14:34:47;;;;;;;;;0.00;0.00;;;;;;;;5027837;28;8860;-71
2023/08/28 14:37:14;;;;;;;;;0.40;0.40;;;;;;;;5027497;28;8982;-73
2023/08/28 14:39:41;;;;;;;;;0.80;0.00;;;;;;;;5028059;28;8860;-74
2023/08/28 14:42:10;;;;;;;;;0.00;0.00;;;;;;;;5033441;28;8840;-74
2023/08/28 14:44:37;;;;;;;;;2.40;1.00;;;;;;;;5015683;28;8843;-76
2023/08/28 14:47:05;;;;;;;;;1.00;0.00;;;;;;;;5027643;28;8856;-70
2023/08/28 14:49:32;;;;;;;;;0.00;0.00;;;;;;;;5028747;28;8864;-68
2023/08/28 14:52:01;;;;;;;;;0.20;0.20;;;;;;;;5027950;28;8894;-68
2023/08/28 14:54:30;;;;;;;;;0.00;0.00;;;;;;;;5027332;28;8926;-68
2023/08/28 14:56:57;;;;;;;;;0.00;0.00;;;;;;;;5027867;28;8872;-68
2023/08/28 14:59:25;;;;;;;;;0.20;0.20;;;;;;;;5026816;28;9030;-70
2023/08/28 15:01:53;;;;;;;;;0.00;0.00;;;;;;;;5027190;28;8828;-74
2023/08/28 15:04:20;;;;;;;;;1.00;1.00;;;;;;;;5027011;28;9766;-67
2023/08/28 15:06:48;;;;;;;;;0.00;0.00;;;;;;;;5027348;28;8840;-69